sensor_id;sensor_type;location;lat;lon;timestamp;P1;durP1;ratioP1;P2;durP2;ratioP2
11504;SDS011;5809;53.262;10.408;2023-06-10T00:01:39;8.85;;;4.50;;
11504;SDS011;5809;53.262;10.408;2023-06-10T00:04:06;11.30;;;5.18;;
11504;SDS011;5809;53.262;10.408;2023-06-10T00:06:35;10.05;;;4.65;;
11504;SDS011;5809;53.262;10.408;2023-06-10T00:09:02;10.10;;;4.97;;
11504;SDS011;5809;53.262;10.408;2023-06-10T00:11:31;9.80;;;5.20;;
11504;SDS011;5809;53.262;10.408;2023-06-10T00:13:58;9.07;;;5.30;;
11504;SDS011;5809;53.262;10.408;2023-06-10T00:16:25;9.93;;;4.93;;
11504;SDS011;5809;53.262;10.408;2023-06-10T00:18:52;8.60;;;5.43;;
11504;SDS011;5809;53.262;10.408;2023-06-10T00:21:20;9.67;;;4.77;;
11504;SDS011;5809;53.262;10.408;2023-06-10T00:23:51;9.63;;;5.25;;
11504;SDS011;5809;53.262;10.408;2023-06-10T00:26:18;9.10;;;4.78;;
11504;SDS011;5809;53.262;10.408;2023-06-10T00:28:45;10.80;;;4.80;;
11504;SDS011;5809;53.262;10.408;2023-06-10T00:31:12;11.07;;;5.00;;
11504;SDS011;5809;53.262;10.408;2023-06-10T00:33:39;8.32;;;4.72;;
11504;SDS011;5809;53.262;10.408;2023-06-10T00:36:06;8.18;;;4.90;;
11504;SDS011;5809;53.262;10.408;2023-06-10T00:38:33;8.35;;;4.80;;
11504;SDS011;5809;53.262;10.408;2023-06-10T00:41:01;9.02;;;4.68;;
11504;SDS011;5809;53.262;10.408;2023-06-10T00:43:28;8.80;;;4.78;;
11504;SDS011;5809;53.262;10.408;2023-06-10T00:45:55;8.23;;;4.63;;
11504;SDS011;5809;53.262;10.408;2023-06-10T00:48:22;12.77;;;4.65;;
11504;SDS011;5809;53.262;10.408;2023-06-10T00:50:49;9.80;;;4.60;;
11504;SDS011;5809;53.262;10.408;2023-06-10T00:53:17;7.95;;;4.55;;
11504;SDS011;5809;53.262;10.408;2023-06-10T00:55:46;7.03;;;4.45;;
11504;SDS011;5809;53.262;10.408;2023-06-10T00:58:14;7.70;;;4.40;;
11504;SDS011;5809;53.262;10.408;2023-06-10T01:00:41;7.55;;;4.40;;
11504;SDS011;5809;53.262;10.408;2023-06-10T01:03:10;9.57;;;4.97;;
11504;SDS011;5809;53.262;10.408;2023-06-10T01:05:37;7.57;;;4.45;;
11504;SDS011;5809;53.262;10.408;2023-06-10T01:08:07;7.97;;;4.32;;
11504;SDS011;5809;53.262;10.408;2023-06-10T01:10:41;9.55;;;4.80;;
11504;SDS011;5809;53.262;10.408;2023-06-10T01:13:12;7.28;;;3.90;;
11504;SDS011;5809;53.262;10.408;2023-06-10T01:15:43;8.87;;;4.07;;
11504;SDS011;5809;53.262;10.408;2023-06-10T01:18:10;8.10;;;4.13;;
11504;SDS011;5809;53.262;10.408;2023-06-10T01:20:40;6.82;;;4.00;;
11504;SDS011;5809;53.262;10.408;2023-06-10T01:23:09;7.00;;;4.05;;
11504;SDS011;5809;53.262;10.408;2023-06-10T01:25:37;7.05;;;4.00;;
11504;SDS011;5809;53.262;10.408;2023-06-10T01:28:10;8.70;;;4.60;;
11504;SDS011;5809;53.262;10.408;2023-06-10T01:30:43;8.65;;;4.32;;
11504;SDS011;5809;53.262;10.408;2023-06-10T01:33:14;6.28;;;4.35;;
11504;SDS011;5809;53.262;10.408;2023-06-10T01:35:45;9.05;;;4.45;;
11504;SDS011;5809;53.262;10.408;2023-06-10T01:38:15;9.60;;;4.80;;
11504;SDS011;5809;53.262;10.408;2023-06-10T01:40:45;10.85;;;4.25;;
11504;SDS011;5809;53.262;10.408;2023-06-10T01:43:13;9.18;;;4.20;;
11504;SDS011;5809;53.262;10.408;2023-06-10T01:45:40;8.45;;;3.88;;
11504;SDS011;5809;53.262;10.408;2023-06-10T01:48:07;8.05;;;4.15;;
11504;SDS011;5809;53.262;10.408;2023-06-10T01:50:34;10.18;;;4.53;;
11504;SDS011;5809;53.262;10.408;2023-06-10T01:53:01;9.40;;;4.30;;
11504;SDS011;5809;53.262;10.408;2023-06-10T01:55:29;7.43;;;4.25;;
11504;SDS011;5809;53.262;10.408;2023-06-10T01:57:56;7.95;;;3.70;;
11504;SDS011;5809;53.262;10.408;2023-06-10T02:00:23;8.77;;;4.28;;
11504;SDS011;5809;53.262;10.408;2023-06-10T02:02:50;7.65;;;3.85;;
11504;SDS011;5809;53.262;10.408;2023-06-10T02:05:17;10.50;;;4.32;;
11504;SDS011;5809;53.262;10.408;2023-06-10T02:07:45;10.43;;;4.40;;
11504;SDS011;5809;53.262;10.408;2023-06-10T02:10:12;9.27;;;4.10;;
11504;SDS011;5809;53.262;10.408;2023-06-10T02:12:40;9.70;;;4.32;;
11504;SDS011;5809;53.262;10.408;2023-06-10T02:15:07;8.90;;;3.55;;
11504;SDS011;5809;53.262;10.408;2023-06-10T02:17:34;7.05;;;3.72;;
11504;SDS011;5809;53.262;10.408;2023-06-10T02:20:01;10.45;;;4.03;;
11504;SDS011;5809;53.262;10.408;2023-06-10T02:22:32;9.60;;;4.20;;
11504;SDS011;5809;53.262;10.408;2023-06-10T02:24:59;10.88;;;4.20;;
11504;SDS011;5809;53.262;10.408;2023-06-10T02:27:26;7.83;;;3.60;;
11504;SDS011;5809;53.262;10.408;2023-06-10T02:29:54;9.82;;;3.78;;
11504;SDS011;5809;53.262;10.408;2023-06-10T02:32:21;10.07;;;4.03;;
11504;SDS011;5809;53.262;10.408;2023-06-10T02:34:48;10.13;;;4.38;;
11504;SDS011;5809;53.262;10.408;2023-06-10T02:37:15;10.88;;;4.22;;
11504;SDS011;5809;53.262;10.408;2023-06-10T02:39:43;8.25;;;4.05;;
11504;SDS011;5809;53.262;10.408;2023-06-10T02:42:10;11.13;;;3.90;;
11504;SDS011;5809;53.262;10.408;2023-06-10T02:44:37;7.90;;;3.97;;
11504;SDS011;5809;53.262;10.408;2023-06-10T02:47:06;10.70;;;3.90;;
11504;SDS011;5809;53.262;10.408;2023-06-10T02:49:33;9.68;;;3.88;;
11504;SDS011;5809;53.262;10.408;2023-06-10T02:52:00;5.68;;;3.58;;
11504;SDS011;5809;53.262;10.408;2023-06-10T02:54:27;9.32;;;3.65;;
11504;SDS011;5809;53.262;10.408;2023-06-10T02:56:54;9.98;;;3.80;;
11504;SDS011;5809;53.262;10.408;2023-06-10T02:59:21;9.55;;;3.65;;
11504;SDS011;5809;53.262;10.408;2023-06-10T03:01:48;7.65;;;3.70;;
11504;SDS011;5809;53.262;10.408;2023-06-10T03:04:17;7.22;;;3.28;;
11504;SDS011;5809;53.262;10.408;2023-06-10T03:06:44;7.65;;;3.55;;
11504;SDS011;5809;53.262;10.408;2023-06-10T03:09:12;6.85;;;2.85;;
11504;SDS011;5809;53.262;10.408;2023-06-10T03:11:39;8.38;;;3.45;;
11504;SDS011;5809;53.262;10.408;2023-06-10T03:14:06;9.27;;;3.47;;
11504;SDS011;5809;53.262;10.408;2023-06-10T03:16:33;9.50;;;3.50;;
11504;SDS011;5809;53.262;10.408;2023-06-10T03:19:00;9.53;;;3.63;;
11504;SDS011;5809;53.262;10.408;2023-06-10T03:21:28;10.00;;;3.30;;
11504;SDS011;5809;53.262;10.408;2023-06-10T03:23:55;8.48;;;3.20;;
11504;SDS011;5809;53.262;10.408;2023-06-10T03:26:22;8.38;;;3.50;;
11504;SDS011;5809;53.262;10.408;2023-06-10T03:28:49;9.65;;;3.58;;
11504;SDS011;5809;53.262;10.408;2023-06-10T03:31:16;7.97;;;3.50;;
11504;SDS011;5809;53.262;10.408;2023-06-10T03:33:43;6.10;;;3.33;;
11504;SDS011;5809;53.262;10.408;2023-06-10T03:36:10;6.80;;;3.40;;
11504;SDS011;5809;53.262;10.408;2023-06-10T03:38:38;5.20;;;3.15;;
11504;SDS011;5809;53.262;10.408;2023-06-10T03:41:05;7.70;;;3.30;;
11504;SDS011;5809;53.262;10.408;2023-06-10T03:43:32;7.57;;;3.25;;
11504;SDS011;5809;53.262;10.408;2023-06-10T03:45:59;6.20;;;3.20;;
11504;SDS011;5809;53.262;10.408;2023-06-10T03:48:26;9.90;;;3.03;;
11504;SDS011;5809;53.262;10.408;2023-06-10T03:50:53;6.57;;;3.30;;
11504;SDS011;5809;53.262;10.408;2023-06-10T03:53:20;6.32;;;3.30;;
11504;SDS011;5809;53.262;10.408;2023-06-10T03:55:48;7.78;;;3.28;;
11504;SDS011;5809;53.262;10.408;2023-06-10T03:58:15;8.00;;;3.28;;
11504;SDS011;5809;53.262;10.408;2023-06-10T04:00:43;10.88;;;3.60;;
11504;SDS011;5809;53.262;10.408;2023-06-10T04:03:10;10.18;;;3.40;;
11504;SDS011;5809;53.262;10.408;2023-06-10T04:05:39;6.53;;;3.00;;
11504;SDS011;5809;53.262;10.408;2023-06-10T04:08:07;9.73;;;3.53;;
11504;SDS011;5809;53.262;10.408;2023-06-10T04:10:34;8.63;;;3.50;;
11504;SDS011;5809;53.262;10.408;2023-06-10T04:13:02;9.93;;;3.85;;
11504;SDS011;5809;53.262;10.408;2023-06-10T04:15:30;9.25;;;3.60;;
11504;SDS011;5809;53.262;10.408;2023-06-10T04:17:58;9.23;;;3.25;;
11504;SDS011;5809;53.262;10.408;2023-06-10T04:20:26;10.63;;;3.70;;
11504;SDS011;5809;53.262;10.408;2023-06-10T04:22:53;5.13;;;2.92;;
11504;SDS011;5809;53.262;10.408;2023-06-10T04:25:20;12.32;;;4.00;;
11504;SDS011;5809;53.262;10.408;2023-06-10T04:27:48;6.93;;;3.40;;
11504;SDS011;5809;53.262;10.408;2023-06-10T04:30:16;7.40;;;3.13;;
11504;SDS011;5809;53.262;10.408;2023-06-10T04:32:43;7.40;;;3.38;;
11504;SDS011;5809;53.262;10.408;2023-06-10T04:35:11;9.10;;;3.58;;
11504;SDS011;5809;53.262;10.408;2023-06-10T04:37:39;7.93;;;3.10;;
11504;SDS011;5809;53.262;10.408;2023-06-10T04:40:06;9.25;;;3.33;;
11504;SDS011;5809;53.262;10.408;2023-06-10T04:42:34;9.65;;;3.22;;
11504;SDS011;5809;53.262;10.408;2023-06-10T04:45:01;11.52;;;3.63;;
11504;SDS011;5809;53.262;10.408;2023-06-10T04:47:30;5.85;;;2.90;;
11504;SDS011;5809;53.262;10.408;2023-06-10T04:49:58;5.75;;;3.00;;
11504;SDS011;5809;53.262;10.408;2023-06-10T04:52:25;7.15;;;3.47;;
11504;SDS011;5809;53.262;10.408;2023-06-10T04:54:52;8.20;;;2.92;;
11504;SDS011;5809;53.262;10.408;2023-06-10T04:57:20;8.48;;;2.83;;
11504;SDS011;5809;53.262;10.408;2023-06-10T04:59:47;8.68;;;3.38;;
11504;SDS011;5809;53.262;10.408;2023-06-10T05:02:14;6.88;;;3.22;;
11504;SDS011;5809;53.262;10.408;2023-06-10T05:04:42;6.07;;;2.90;;
11504;SDS011;5809;53.262;10.408;2023-06-10T05:07:09;7.90;;;3.05;;
11504;SDS011;5809;53.262;10.408;2023-06-10T05:09:36;6.03;;;2.83;;
11504;SDS011;5809;53.262;10.408;2023-06-10T05:12:03;10.65;;;3.13;;
11504;SDS011;5809;53.262;10.408;2023-06-10T05:14:31;6.43;;;2.70;;
11504;SDS011;5809;53.262;10.408;2023-06-10T05:16:58;6.50;;;3.00;;
11504;SDS011;5809;53.262;10.408;2023-06-10T05:19:25;6.03;;;2.85;;
11504;SDS011;5809;53.262;10.408;2023-06-10T05:21:54;10.63;;;3.67;;
11504;SDS011;5809;53.262;10.408;2023-06-10T05:24:21;6.32;;;2.67;;
11504;SDS011;5809;53.262;10.408;2023-06-10T05:26:48;10.35;;;2.88;;
11504;SDS011;5809;53.262;10.408;2023-06-10T05:29:15;7.90;;;3.17;;
11504;SDS011;5809;53.262;10.408;2023-06-10T05:31:42;9.52;;;3.15;;
11504;SDS011;5809;53.262;10.408;2023-06-10T05:34:09;9.73;;;3.45;;
11504;SDS011;5809;53.262;10.408;2023-06-10T05:36:36;7.22;;;3.17;;
11504;SDS011;5809;53.262;10.408;2023-06-10T05:39:04;11.15;;;3.35;;
11504;SDS011;5809;53.262;10.408;2023-06-10T05:41:31;8.75;;;3.55;;
11504;SDS011;5809;53.262;10.408;2023-06-10T05:43:58;5.32;;;2.83;;
11504;SDS011;5809;53.262;10.408;2023-06-10T05:46:25;7.97;;;3.20;;
11504;SDS011;5809;53.262;10.408;2023-06-10T05:48:52;8.25;;;2.90;;
11504;SDS011;5809;53.262;10.408;2023-06-10T05:51:19;5.95;;;3.08;;
11504;SDS011;5809;53.262;10.408;2023-06-10T05:53:46;6.53;;;2.92;;
11504;SDS011;5809;53.262;10.408;2023-06-10T05:56:14;7.93;;;3.08;;
11504;SDS011;5809;53.262;10.408;2023-06-10T05:58:41;9.73;;;2.92;;
11504;SDS011;5809;53.262;10.408;2023-06-10T06:01:08;8.80;;;2.72;;
11504;SDS011;5809;53.262;10.408;2023-06-10T06:03:35;5.90;;;2.63;;
11504;SDS011;5809;53.262;10.408;2023-06-10T06:06:02;5.47;;;2.80;;
11504;SDS011;5809;53.262;10.408;2023-06-10T06:08:29;9.40;;;2.67;;
11504;SDS011;5809;53.262;10.408;2023-06-10T06:10:56;6.05;;;2.78;;
11504;SDS011;5809;53.262;10.408;2023-06-10T06:13:25;11.95;;;3.10;;
11504;SDS011;5809;53.262;10.408;2023-06-10T06:15:52;6.47;;;2.60;;
11504;SDS011;5809;53.262;10.408;2023-06-10T06:18:18;6.25;;;2.55;;
11504;SDS011;5809;53.262;10.408;2023-06-10T06:20:45;8.45;;;3.10;;
11504;SDS011;5809;53.262;10.408;2023-06-10T06:23:12;6.55;;;2.90;;
11504;SDS011;5809;53.262;10.408;2023-06-10T06:25:40;7.55;;;2.95;;
11504;SDS011;5809;53.262;10.408;2023-06-10T06:28:07;9.80;;;2.83;;
11504;SDS011;5809;53.262;10.408;2023-06-10T06:30:36;6.20;;;2.67;;
11504;SDS011;5809;53.262;10.408;2023-06-10T06:33:03;6.45;;;2.97;;
11504;SDS011;5809;53.262;10.408;2023-06-10T06:35:30;9.13;;;3.08;;
11504;SDS011;5809;53.262;10.408;2023-06-10T06:37:58;4.97;;;2.40;;
11504;SDS011;5809;53.262;10.408;2023-06-10T06:40:24;7.72;;;3.10;;
11504;SDS011;5809;53.262;10.408;2023-06-10T06:42:51;7.93;;;2.70;;
11504;SDS011;5809;53.262;10.408;2023-06-10T06:45:18;6.78;;;2.85;;
11504;SDS011;5809;53.262;10.408;2023-06-10T06:47:47;5.53;;;2.88;;
11504;SDS011;5809;53.262;10.408;2023-06-10T06:50:14;10.63;;;3.17;;
11504;SDS011;5809;53.262;10.408;2023-06-10T06:52:41;5.35;;;2.90;;
11504;SDS011;5809;53.262;10.408;2023-06-10T06:55:08;6.85;;;3.28;;
11504;SDS011;5809;53.262;10.408;2023-06-10T06:57:35;5.97;;;2.70;;
11504;SDS011;5809;53.262;10.408;2023-06-10T07:00:03;9.32;;;3.25;;
11504;SDS011;5809;53.262;10.408;2023-06-10T07:02:30;6.25;;;3.15;;
11504;SDS011;5809;53.262;10.408;2023-06-10T07:04:59;7.07;;;2.67;;
11504;SDS011;5809;53.262;10.408;2023-06-10T07:07:26;7.68;;;3.08;;
11504;SDS011;5809;53.262;10.408;2023-06-10T07:21:15;7.93;;;3.22;;
11504;SDS011;5809;53.262;10.408;2023-06-10T07:23:42;6.53;;;3.20;;
11504;SDS011;5809;53.262;10.408;2023-06-10T07:26:09;7.43;;;2.90;;
11504;SDS011;5809;53.262;10.408;2023-06-10T07:28:38;6.15;;;2.67;;
11504;SDS011;5809;53.262;10.408;2023-06-10T07:31:05;6.43;;;3.25;;
11504;SDS011;5809;53.262;10.408;2023-06-10T07:33:33;6.43;;;3.13;;
11504;SDS011;5809;53.262;10.408;2023-06-10T07:36:02;7.85;;;3.08;;
11504;SDS011;5809;53.262;10.408;2023-06-10T07:38:30;7.85;;;3.17;;
11504;SDS011;5809;53.262;10.408;2023-06-10T07:40:57;6.18;;;2.83;;
11504;SDS011;5809;53.262;10.408;2023-06-10T07:43:24;5.88;;;2.72;;
11504;SDS011;5809;53.262;10.408;2023-06-10T07:45:51;5.72;;;3.20;;
11504;SDS011;5809;53.262;10.408;2023-06-10T07:48:18;6.38;;;2.97;;
11504;SDS011;5809;53.262;10.408;2023-06-10T07:50:45;5.70;;;2.70;;
11504;SDS011;5809;53.262;10.408;2023-06-10T07:53:12;4.75;;;2.70;;
11504;SDS011;5809;53.262;10.408;2023-06-10T07:55:40;6.78;;;2.97;;
11504;SDS011;5809;53.262;10.408;2023-06-10T07:58:07;5.47;;;2.58;;
11504;SDS011;5809;53.262;10.408;2023-06-10T08:00:35;8.02;;;2.92;;
11504;SDS011;5809;53.262;10.408;2023-06-10T08:03:02;9.68;;;3.20;;
11504;SDS011;5809;53.262;10.408;2023-06-10T08:05:29;5.60;;;3.22;;
11504;SDS011;5809;53.262;10.408;2023-06-10T08:07:56;8.02;;;3.28;;
11504;SDS011;5809;53.262;10.408;2023-06-10T08:10:23;4.97;;;3.00;;
11504;SDS011;5809;53.262;10.408;2023-06-10T08:12:51;5.55;;;3.10;;
11504;SDS011;5809;53.262;10.408;2023-06-10T08:15:18;4.60;;;2.63;;
11504;SDS011;5809;53.262;10.408;2023-06-10T08:17:45;6.40;;;2.80;;
11504;SDS011;5809;53.262;10.408;2023-06-10T08:20:12;7.82;;;3.35;;
11504;SDS011;5809;53.262;10.408;2023-06-10T08:22:39;7.25;;;2.92;;
11504;SDS011;5809;53.262;10.408;2023-06-10T08:25:07;4.15;;;2.55;;
11504;SDS011;5809;53.262;10.408;2023-06-10T08:27:34;5.80;;;2.78;;
11504;SDS011;5809;53.262;10.408;2023-06-10T08:30:03;5.43;;;2.83;;
11504;SDS011;5809;53.262;10.408;2023-06-10T08:32:31;6.80;;;3.60;;
11504;SDS011;5809;53.262;10.408;2023-06-10T08:34:57;7.25;;;3.42;;
11504;SDS011;5809;53.262;10.408;2023-06-10T08:37:25;7.32;;;3.13;;
11504;SDS011;5809;53.262;10.408;2023-06-10T08:39:51;5.88;;;3.00;;
11504;SDS011;5809;53.262;10.408;2023-06-10T08:42:20;6.68;;;2.80;;
11504;SDS011;5809;53.262;10.408;2023-06-10T08:44:50;9.80;;;2.95;;
11504;SDS011;5809;53.262;10.408;2023-06-10T08:47:22;6.00;;;3.15;;
11504;SDS011;5809;53.262;10.408;2023-06-10T08:49:50;8.02;;;3.33;;
11504;SDS011;5809;53.262;10.408;2023-06-10T08:52:19;7.47;;;3.08;;
11504;SDS011;5809;53.262;10.408;2023-06-10T08:54:48;7.15;;;3.40;;
11504;SDS011;5809;53.262;10.408;2023-06-10T08:57:18;5.32;;;2.95;;
11504;SDS011;5809;53.262;10.408;2023-06-10T08:59:47;5.85;;;3.22;;
11504;SDS011;5809;53.262;10.408;2023-06-10T09:02:14;6.20;;;3.38;;
11504;SDS011;5809;53.262;10.408;2023-06-10T09:04:46;7.07;;;3.55;;
11504;SDS011;5809;53.262;10.408;2023-06-10T09:07:13;7.13;;;3.40;;
11504;SDS011;5809;53.262;10.408;2023-06-10T09:09:42;6.20;;;2.90;;
11504;SDS011;5809;53.262;10.408;2023-06-10T09:12:10;3.63;;;2.88;;
11504;SDS011;5809;53.262;10.408;2023-06-10T09:14:38;6.15;;;3.22;;
11504;SDS011;5809;53.262;10.408;2023-06-10T09:17:05;7.53;;;3.25;;
11504;SDS011;5809;53.262;10.408;2023-06-10T09:19:32;8.30;;;3.42;;
11504;SDS011;5809;53.262;10.408;2023-06-10T09:22:01;6.13;;;3.15;;
11504;SDS011;5809;53.262;10.408;2023-06-10T09:24:28;8.88;;;3.22;;
11504;SDS011;5809;53.262;10.408;2023-06-10T09:27:01;5.78;;;3.30;;
11504;SDS011;5809;53.262;10.408;2023-06-10T09:29:30;6.63;;;3.60;;
11504;SDS011;5809;53.262;10.408;2023-06-10T09:31:57;7.97;;;3.50;;
11504;SDS011;5809;53.262;10.408;2023-06-10T09:34:24;8.00;;;3.35;;
11504;SDS011;5809;53.262;10.408;2023-06-10T09:36:52;9.65;;;3.42;;
11504;SDS011;5809;53.262;10.408;2023-06-10T09:39:22;7.20;;;3.60;;
11504;SDS011;5809;53.262;10.408;2023-06-10T09:41:49;7.05;;;3.42;;
11504;SDS011;5809;53.262;10.408;2023-06-10T09:44:17;9.77;;;3.78;;
11504;SDS011;5809;53.262;10.408;2023-06-10T09:46:45;7.15;;;3.50;;
11504;SDS011;5809;53.262;10.408;2023-06-10T09:49:13;6.97;;;3.85;;
11504;SDS011;5809;53.262;10.408;2023-06-10T09:51:48;9.45;;;3.58;;
11504;SDS011;5809;53.262;10.408;2023-06-10T09:54:16;8.00;;;3.50;;
11504;SDS011;5809;53.262;10.408;2023-06-10T09:56:47;7.57;;;3.97;;
11504;SDS011;5809;53.262;10.408;2023-06-10T09:59:15;6.85;;;3.40;;
11504;SDS011;5809;53.262;10.408;2023-06-10T10:01:42;6.20;;;3.58;;
11504;SDS011;5809;53.262;10.408;2023-06-10T10:04:09;5.53;;;3.72;;
11504;SDS011;5809;53.262;10.408;2023-06-10T10:06:36;8.75;;;3.88;;
11504;SDS011;5809;53.262;10.408;2023-06-10T10:09:03;6.63;;;3.58;;
11504;SDS011;5809;53.262;10.408;2023-06-10T10:11:30;7.57;;;3.70;;
11504;SDS011;5809;53.262;10.408;2023-06-10T10:14:01;6.05;;;3.50;;
11504;SDS011;5809;53.262;10.408;2023-06-10T10:16:33;7.15;;;3.55;;
11504;SDS011;5809;53.262;10.408;2023-06-10T10:19:05;7.10;;;3.58;;
11504;SDS011;5809;53.262;10.408;2023-06-10T10:21:37;6.97;;;3.78;;
11504;SDS011;5809;53.262;10.408;2023-06-10T10:24:09;7.10;;;3.78;;
11504;SDS011;5809;53.262;10.408;2023-06-10T10:26:42;8.25;;;3.70;;
11504;SDS011;5809;53.262;10.408;2023-06-10T10:29:14;7.82;;;3.88;;
11504;SDS011;5809;53.262;10.408;2023-06-10T10:31:46;6.10;;;3.80;;
11504;SDS011;5809;53.262;10.408;2023-06-10T10:34:19;8.90;;;3.90;;
11504;SDS011;5809;53.262;10.408;2023-06-10T10:36:55;10.18;;;3.90;;
11504;SDS011;5809;53.262;10.408;2023-06-10T10:39:22;7.25;;;4.30;;
11504;SDS011;5809;53.262;10.408;2023-06-10T10:41:51;9.73;;;4.30;;
11504;SDS011;5809;53.262;10.408;2023-06-10T10:44:20;4.65;;;3.63;;
11504;SDS011;5809;53.262;10.408;2023-06-10T10:46:48;6.30;;;3.95;;
11504;SDS011;5809;53.262;10.408;2023-06-10T10:49:17;10.32;;;4.53;;
11504;SDS011;5809;53.262;10.408;2023-06-10T10:51:55;9.07;;;3.95;;
11504;SDS011;5809;53.262;10.408;2023-06-10T10:54:28;6.22;;;3.83;;
11504;SDS011;5809;53.262;10.408;2023-06-10T10:57:12;9.73;;;4.20;;
11504;SDS011;5809;53.262;10.408;2023-06-10T11:02:33;7.43;;;4.20;;
11504;SDS011;5809;53.262;10.408;2023-06-10T11:05:08;5.93;;;3.78;;
11504;SDS011;5809;53.262;10.408;2023-06-10T11:07:36;8.60;;;4.13;;
11504;SDS011;5809;53.262;10.408;2023-06-10T11:10:05;8.77;;;3.70;;
11504;SDS011;5809;53.262;10.408;2023-06-10T11:15:21;19.20;;;4.25;;
11504;SDS011;5809;53.262;10.408;2023-06-10T11:18:08;9.63;;;4.38;;
11504;SDS011;5809;53.262;10.408;2023-06-10T11:20:52;6.05;;;3.97;;
11504;SDS011;5809;53.262;10.408;2023-06-10T11:23:34;7.97;;;4.40;;
11504;SDS011;5809;53.262;10.408;2023-06-10T11:26:11;6.70;;;4.05;;
11504;SDS011;5809;53.262;10.408;2023-06-10T11:28:39;7.60;;;4.18;;
11504;SDS011;5809;53.262;10.408;2023-06-10T11:31:08;5.10;;;4.07;;
11504;SDS011;5809;53.262;10.408;2023-06-10T11:33:44;5.57;;;4.00;;
11504;SDS011;5809;53.262;10.408;2023-06-10T11:36:13;7.15;;;4.57;;
11504;SDS011;5809;53.262;10.408;2023-06-10T11:38:40;8.32;;;4.55;;
11504;SDS011;5809;53.262;10.408;2023-06-10T11:41:07;6.47;;;4.40;;
11504;SDS011;5809;53.262;10.408;2023-06-10T11:43:34;6.80;;;4.60;;
11504;SDS011;5809;53.262;10.408;2023-06-10T11:46:01;9.90;;;3.90;;
11504;SDS011;5809;53.262;10.408;2023-06-10T11:48:29;5.60;;;4.32;;
11504;SDS011;5809;53.262;10.408;2023-06-10T11:50:56;7.32;;;4.80;;
11504;SDS011;5809;53.262;10.408;2023-06-10T11:53:23;6.53;;;4.32;;
11504;SDS011;5809;53.262;10.408;2023-06-10T11:55:50;6.82;;;4.22;;
11504;SDS011;5809;53.262;10.408;2023-06-10T11:58:19;5.22;;;3.88;;
11504;SDS011;5809;53.262;10.408;2023-06-10T12:00:48;7.85;;;4.50;;
11504;SDS011;5809;53.262;10.408;2023-06-10T12:03:16;8.15;;;5.20;;
11504;SDS011;5809;53.262;10.408;2023-06-10T12:05:57;9.52;;;4.55;;
11504;SDS011;5809;53.262;10.408;2023-06-10T12:08:25;6.30;;;4.63;;
11504;SDS011;5809;53.262;10.408;2023-06-10T12:10:53;12.93;;;4.47;;
11504;SDS011;5809;53.262;10.408;2023-06-10T12:13:21;5.43;;;4.22;;
11504;SDS011;5809;53.262;10.408;2023-06-10T12:15:48;9.75;;;4.18;;
11504;SDS011;5809;53.262;10.408;2023-06-10T12:18:16;7.88;;;4.70;;
11504;SDS011;5809;53.262;10.408;2023-06-10T12:20:43;6.93;;;4.72;;
11504;SDS011;5809;53.262;10.408;2023-06-10T12:23:12;8.52;;;4.40;;
11504;SDS011;5809;53.262;10.408;2023-06-10T12:25:47;6.57;;;4.57;;
11504;SDS011;5809;53.262;10.408;2023-06-10T12:28:17;7.53;;;4.55;;
11504;SDS011;5809;53.262;10.408;2023-06-10T12:30:47;7.80;;;4.07;;
11504;SDS011;5809;53.262;10.408;2023-06-10T12:33:17;8.80;;;4.32;;
11504;SDS011;5809;53.262;10.408;2023-06-10T12:35:48;5.15;;;4.07;;
11504;SDS011;5809;53.262;10.408;2023-06-10T12:38:21;10.45;;;5.00;;
11504;SDS011;5809;53.262;10.408;2023-06-10T12:40:49;8.00;;;3.92;;
11504;SDS011;5809;53.262;10.408;2023-06-10T12:43:20;5.45;;;4.28;;
11504;SDS011;5809;53.262;10.408;2023-06-10T12:45:47;7.50;;;4.22;;
11504;SDS011;5809;53.262;10.408;2023-06-10T12:48:17;8.95;;;3.95;;
11504;SDS011;5809;53.262;10.408;2023-06-10T12:50:46;6.97;;;4.30;;
11504;SDS011;5809;53.262;10.408;2023-06-10T12:53:17;7.35;;;4.25;;
11504;SDS011;5809;53.262;10.408;2023-06-10T12:55:47;10.30;;;3.80;;
11504;SDS011;5809;53.262;10.408;2023-06-10T12:58:14;5.97;;;4.25;;
11504;SDS011;5809;53.262;10.408;2023-06-10T13:00:41;7.22;;;4.10;;
11504;SDS011;5809;53.262;10.408;2023-06-10T13:03:09;7.05;;;4.28;;
11504;SDS011;5809;53.262;10.408;2023-06-10T13:05:36;8.75;;;4.10;;
11504;SDS011;5809;53.262;10.408;2023-06-10T13:08:04;7.13;;;4.38;;
11504;SDS011;5809;53.262;10.408;2023-06-10T13:10:32;6.68;;;4.40;;
11504;SDS011;5809;53.262;10.408;2023-06-10T13:13:01;9.95;;;4.57;;
11504;SDS011;5809;53.262;10.408;2023-06-10T13:15:31;8.82;;;4.22;;
11504;SDS011;5809;53.262;10.408;2023-06-10T13:18:01;5.53;;;4.35;;
11504;SDS011;5809;53.262;10.408;2023-06-10T13:20:28;4.93;;;4.20;;
11504;SDS011;5809;53.262;10.408;2023-06-10T13:22:56;5.45;;;4.13;;
11504;SDS011;5809;53.262;10.408;2023-06-10T13:25:23;6.63;;;4.50;;
11504;SDS011;5809;53.262;10.408;2023-06-10T13:27:50;6.22;;;4.60;;
11504;SDS011;5809;53.262;10.408;2023-06-10T13:30:18;8.07;;;4.13;;
11504;SDS011;5809;53.262;10.408;2023-06-10T13:32:45;7.88;;;4.68;;
11504;SDS011;5809;53.262;10.408;2023-06-10T13:35:12;8.40;;;4.80;;
11504;SDS011;5809;53.262;10.408;2023-06-10T13:37:39;4.63;;;4.03;;
11504;SDS011;5809;53.262;10.408;2023-06-10T13:40:06;7.93;;;4.30;;
11504;SDS011;5809;53.262;10.408;2023-06-10T13:42:34;6.00;;;4.28;;
11504;SDS011;5809;53.262;10.408;2023-06-10T13:45:02;6.03;;;4.25;;
11504;SDS011;5809;53.262;10.408;2023-06-10T13:47:31;7.35;;;4.72;;
11504;SDS011;5809;53.262;10.408;2023-06-10T13:49:57;8.23;;;4.75;;
11504;SDS011;5809;53.262;10.408;2023-06-10T13:52:24;7.85;;;4.35;;
11504;SDS011;5809;53.262;10.408;2023-06-10T13:54:51;7.53;;;4.43;;
11504;SDS011;5809;53.262;10.408;2023-06-10T13:57:18;10.65;;;4.40;;
11504;SDS011;5809;53.262;10.408;2023-06-10T13:59:45;10.68;;;4.28;;
11504;SDS011;5809;53.262;10.408;2023-06-10T14:02:12;6.78;;;4.28;;
11504;SDS011;5809;53.262;10.408;2023-06-10T14:04:40;7.68;;;4.50;;
11504;SDS011;5809;53.262;10.408;2023-06-10T14:07:07;7.18;;;4.38;;
11504;SDS011;5809;53.262;10.408;2023-06-10T14:09:34;6.75;;;4.10;;
11504;SDS011;5809;53.262;10.408;2023-06-10T14:12:01;5.32;;;4.82;;
11504;SDS011;5809;53.262;10.408;2023-06-10T14:14:30;9.18;;;4.70;;
11504;SDS011;5809;53.262;10.408;2023-06-10T14:16:58;6.35;;;4.40;;
11504;SDS011;5809;53.262;10.408;2023-06-10T14:19:25;8.30;;;4.80;;
11504;SDS011;5809;53.262;10.408;2023-06-10T14:21:53;7.00;;;4.82;;
11504;SDS011;5809;53.262;10.408;2023-06-10T14:24:20;9.30;;;4.90;;
11504;SDS011;5809;53.262;10.408;2023-06-10T14:26:47;6.57;;;4.53;;
11504;SDS011;5809;53.262;10.408;2023-06-10T14:29:14;11.20;;;4.80;;
11504;SDS011;5809;53.262;10.408;2023-06-10T14:31:42;9.98;;;4.95;;
11504;SDS011;5809;53.262;10.408;2023-06-10T14:34:09;8.60;;;5.30;;
11504;SDS011;5809;53.262;10.408;2023-06-10T14:36:36;7.03;;;4.82;;
11504;SDS011;5809;53.262;10.408;2023-06-10T14:39:04;8.65;;;4.82;;
11504;SDS011;5809;53.262;10.408;2023-06-10T14:41:31;9.65;;;4.45;;
11504;SDS011;5809;53.262;10.408;2023-06-10T14:43:58;4.93;;;4.43;;
11504;SDS011;5809;53.262;10.408;2023-06-10T14:46:25;7.30;;;4.78;;
11504;SDS011;5809;53.262;10.408;2023-06-10T14:48:52;10.40;;;4.80;;
11504;SDS011;5809;53.262;10.408;2023-06-10T14:51:19;5.50;;;4.43;;
11504;SDS011;5809;53.262;10.408;2023-06-10T14:53:46;6.82;;;4.78;;
11504;SDS011;5809;53.262;10.408;2023-06-10T14:56:14;5.57;;;5.05;;
11504;SDS011;5809;53.262;10.408;2023-06-10T14:58:41;7.03;;;5.20;;
11504;SDS011;5809;53.262;10.408;2023-06-10T15:01:08;9.85;;;4.85;;
11504;SDS011;5809;53.262;10.408;2023-06-10T15:03:35;7.03;;;5.45;;
11504;SDS011;5809;53.262;10.408;2023-06-10T15:06:02;8.82;;;5.07;;
11504;SDS011;5809;53.262;10.408;2023-06-10T15:08:29;7.03;;;5.47;;